Time;durP1;ratioP1;P1;durP2;ratioP2;P2;SDS_P1;SDS_P2;PMS_P1;PMS_P2;Temp;Humidity;BMP_temperature;BMP_pressure;BME280_temperature;BME280_humidity;BME280_pressure;Samples;Min_cycle;Max_cycle;Signal;HPM_P1;HPM_P2
2022/03/16 00:00:15;;;;;;;197.60;136.43;;;;;;;2.85;69.03;101087.32;1779195;80;27538;-79
2022/03/16 00:02:45;;;;;;;183.93;134.15;;;;;;;2.84;68.92;101079.81;1780175;80;25798;-79
2022/03/16 00:05:12;;;;;;;154.87;125.20;;;;;;;2.84;69.21;101073.66;1780015;80;25626;-79
2022/03/16 00:07:39;;;;;;;166.32;125.58;;;;;;;2.84;69.32;101063.78;1779190;80;26884;-77
2022/03/16 00:10:07;;;;;;;171.28;123.20;;;;;;;2.84;69.29;101048.28;1778709;80;25616;-77
2022/03/16 00:12:38;;;;;;;160.30;123.47;;;;;;;2.85;69.33;101041.36;1778782;80;27328;-76
2022/03/16 00:15:07;;;;;;;159.03;123.47;;;;;;;2.86;69.35;101040.33;1778483;80;25685;-76
2022/03/16 00:17:34;;;;;;;174.18;124.35;;;;;;;2.87;69.53;101045.94;1778589;80;25587;-77
2022/03/16 00:20:00;;;;;;;158.40;123.97;;;;;;;2.88;69.89;101036.05;1778478;80;25906;-77
2022/03/16 00:26:17;;;;;;;147.80;121.30;;;;;;;2.88;69.64;101031.53;1687445;85;27318;-77
2022/03/16 00:28:44;;;;;;;156.02;124.55;;;;;;;2.89;69.75;101027.80;1717833;83;25608;-76
2022/03/16 00:31:10;;;;;;;165.15;129.15;;;;;;;2.91;69.80;101033.73;1717211;83;25861;-77
2022/03/16 00:33:37;;;;;;;163.57;125.27;;;;;;;2.91;70.01;101030.23;1731503;82;25847;-77
2022/03/16 00:36:04;;;;;;;165.20;125.42;;;;;;;2.92;70.00;101036.67;1718196;83;25269;-76
2022/03/16 00:38:30;;;;;;;157.45;122.87;;;;;;;2.93;70.13;101034.30;1717655;83;27973;-79
2022/03/16 00:40:57;;;;;;;155.75;122.85;;;;;;;2.95;70.08;101036.20;1717075;83;25641;-77
2022/03/16 00:43:23;;;;;;;158.93;123.70;;;;;;;2.95;69.95;101026.85;1717924;83;25395;-77
2022/03/16 00:45:50;;;;;;;144.60;121.40;;;;;;;2.94;69.75;101023.87;1732405;82;25885;-77
2022/03/16 00:48:17;;;;;;;147.90;118.25;;;;;;;2.95;69.93;101030.06;1718554;83;25382;-77
2022/03/16 00:50:43;;;;;;;146.80;117.65;;;;;;;2.95;69.86;101026.05;1718544;83;27866;-76
2022/03/16 00:53:10;;;;;;;143.22;119.40;;;;;;;2.94;70.09;101019.07;1703021;83;25744;-76
2022/03/16 00:55:36;;;;;;;156.20;120.95;;;;;;;2.95;69.96;101022.84;1652701;86;25447;-77
2022/03/16 00:58:03;;;;;;;146.68;116.42;;;;;;;2.94;69.88;101022.55;1669659;86;25897;-77
2022/03/16 01:00:29;;;;;;;131.52;113.62;;;;;;;2.93;70.06;101026.82;1681763;85;25444;-77
2022/03/16 01:02:56;;;;;;;135.95;114.30;;;;;;;2.92;70.19;101027.33;1652668;86;27339;-77
2022/03/16 01:05:22;;;;;;;158.12;118.45;;;;;;;2.92;70.34;101028.66;1627981;85;25570;-77
2022/03/16 01:07:49;;;;;;;152.85;121.45;;;;;;;2.90;70.22;101024.63;1652829;86;25516;-77
2022/03/16 01:10:15;;;;;;;147.43;119.62;;;;;;;2.91;70.10;101019.55;1681719;85;26421;-77
2022/03/16 01:12:42;;;;;;;136.57;115.03;;;;;;;2.90;70.19;101014.73;1652933;86;25660;-77
2022/03/16 01:15:09;;;;;;;134.25;115.10;;;;;;;2.91;70.09;101015.53;1681934;85;27337;-77
2022/03/16 01:17:35;;;;;;;134.75;114.72;;;;;;;2.90;70.21;101012.06;1669940;85;25226;-77
2022/03/16 01:20:03;;;;;;;150.20;118.30;;;;;;;2.90;70.19;101014.73;1682525;85;25540;-77
2022/03/16 01:22:29;;;;;;;144.32;117.75;;;;;;;2.90;70.22;101013.40;1624991;87;25916;-77
2022/03/16 01:24:55;;;;;;;151.45;119.53;;;;;;;2.89;70.23;101003.75;1653167;86;25518;-77
2022/03/16 01:27:22;;;;;;;150.10;118.35;;;;;;;2.91;70.15;100999.00;1640904;87;27515;-76
2022/03/16 01:29:48;;;;;;;139.40;117.22;;;;;;;2.91;70.20;100999.00;1640761;87;25749;-76
2022/03/16 01:32:15;;;;;;;131.90;112.10;;;;;;;2.92;70.24;101001.13;1640881;87;25483;-77
2022/03/16 01:34:41;;;;;;;120.70;82.90;;;;;;;2.92;70.46;101001.94;1640834;87;26500;-77
2022/03/16 01:37:08;;;;;;;118.02;57.53;;;;;;;2.96;70.53;101011.62;1640869;87;25491;-77
2022/03/16 01:39:34;;;;;;;94.32;50.55;;;;;;;2.97;70.51;101011.38;1618871;87;27507;-77
2022/03/16 01:42:00;;;;;;;87.27;43.95;;;;;;;2.97;70.82;101011.91;1640769;87;25336;-76
2022/03/16 01:44:48;;;;;;;77.50;43.42;;;;;;;2.98;71.04;101013.55;1640888;87;25513;-76
2022/03/16 01:47:17;;;;;;;82.15;43.45;;;;;;;3.02;70.88;101017.88;1652707;86;26642;-76
2022/03/16 01:49:45;;;;;;;88.25;46.60;;;;;;;3.04;71.17;101010.42;1681847;85;25625;-76
2022/03/16 01:52:20;;;;;;;90.40;49.23;;;;;;;3.06;71.03;101006.98;1669680;85;26855;-76
2022/03/16 01:54:46;;;;;;;83.72;41.92;;;;;;;3.07;71.21;101005.41;1687466;85;25580;-76
2022/03/16 01:57:15;;;;;;;80.80;44.73;;;;;;;3.08;71.29;101014.23;1662448;85;25467;-76
2022/03/16 01:59:43;;;;;;;87.37;49.08;;;;;;;3.10;71.11;101008.94;1715932;83;25977;-75
2022/03/16 02:02:11;;;;;;;88.95;47.45;;;;;;;3.12;71.10;101014.05;1718168;83;25645;-76
2022/03/16 02:04:39;;;;;;;85.65;45.25;;;;;;;3.13;71.15;101012.98;1718131;83;27307;-76
2022/03/16 02:07:06;;;;;;;119.70;106.52;;;;;;;3.13;71.03;101008.47;1718028;83;25475;-76
2022/03/16 02:09:33;;;;;;;126.87;110.25;;;;;;;3.12;71.17;101004.70;1715425;83;25492;-76
2022/03/16 02:12:00;;;;;;;120.72;105.63;;;;;;;3.14;71.18;101001.25;1718145;83;25974;-76
2022/03/16 02:14:28;;;;;;;124.00;107.78;;;;;;;3.17;71.17;101011.47;1718180;83;25632;-78
2022/03/16 02:16:57;;;;;;;118.97;106.00;;;;;;;3.18;71.11;101003.20;1718113;83;27319;-77
2022/03/16 02:19:24;;;;;;;122.70;108.50;;;;;;;3.21;71.01;101002.43;1718044;83;25565;-77
2022/03/16 02:21:56;;;;;;;117.93;105.12;;;;;;;3.22;71.06;101012.05;1718178;83;25567;-77
2022/03/16 02:24:25;;;;;;;118.33;105.03;;;;;;;3.23;71.06;101015.02;1717431;83;25933;-77
2022/03/16 02:26:51;;;;;;;117.47;104.40;;;;;;;3.22;71.13;101008.04;1718223;83;25611;-77
2022/03/16 02:29:18;;;;;;;84.85;46.08;;;;;;;3.29;71.13;101008.19;1719038;83;27947;-77
2022/03/16 02:31:45;;;;;;;91.08;48.83;;;;;;;3.32;71.12;101006.37;1719485;83;25225;-78
2022/03/16 02:34:11;;;;;;;90.53;48.87;;;;;;;3.33;71.16;101007.16;1718217;83;25563;-77
2022/03/16 02:36:38;;;;;;;84.52;48.73;;;;;;;3.35;71.09;101017.09;1718086;83;26125;-78
2022/03/16 02:39:04;;;;;;;83.33;46.15;;;;;;;3.34;71.14;101006.93;1718204;83;25597;-78
2022/03/16 02:41:31;;;;;;;87.95;46.33;;;;;;;3.34;71.07;101003.45;1718187;83;27962;-77
2022/03/16 02:43:58;;;;;;;87.90;47.98;;;;;;;3.36;71.15;101012.03;1718087;83;25646;-77
2022/03/16 02:46:25;;;;;;;81.57;43.02;;;;;;;3.36;71.04;101004.81;1718118;83;25678;-77
2022/03/16 02:48:52;;;;;;;78.75;44.77;;;;;;;3.36;71.26;101005.35;1718038;83;25929;-77
2022/03/16 02:51:18;;;;;;;82.25;44.23;;;;;;;3.40;71.27;101012.36;1718160;83;25632;-77
2022/03/16 02:53:46;;;;;;;88.25;61.60;;;;;;;3.41;71.32;101015.33;1718027;83;27319;-77
2022/03/16 02:56:12;;;;;;;77.87;43.63;;;;;;;3.40;71.17;101005.67;1717996;83;25490;-77
2022/03/16 02:58:39;;;;;;;79.30;43.85;;;;;;;3.42;71.28;101007.03;1715436;83;25494;-77
2022/03/16 03:01:05;;;;;;;76.22;43.75;;;;;;;3.44;71.18;101004.95;1718102;83;25918;-77
2022/03/16 03:03:32;;;;;;;76.80;41.68;;;;;;;3.46;71.17;100996.69;1718106;83;25636;-77
2022/03/16 03:05:58;;;;;;;76.53;41.08;;;;;;;3.47;71.19;100995.08;1691611;83;27417;-77
2022/03/16 03:08:25;;;;;;;75.20;39.18;;;;;;;3.49;71.17;100992.16;1715276;83;25654;-77
2022/03/16 03:10:51;;;;;;;76.00;41.15;;;;;;;3.49;71.17;100986.81;1718250;83;25574;-77
2022/03/16 03:13:17;;;;;;;79.82;52.43;;;;;;;3.52;71.18;100998.36;1718222;83;26030;-77
2022/03/16 03:15:44;;;;;;;70.03;39.83;;;;;;;3.54;71.24;100994.41;1718289;83;25566;-77
2022/03/16 03:18:10;;;;;;;70.30;37.73;;;;;;;3.54;71.26;100990.90;1718210;83;27341;-77
2022/03/16 03:20:36;;;;;;;71.42;39.33;;;;;;;3.55;71.26;100993.88;1718202;83;25616;-77
2022/03/16 03:23:03;;;;;;;72.67;38.85;;;;;;;3.57;71.16;100993.63;1718215;83;25412;-78
2022/03/16 03:25:30;;;;;;;76.30;40.43;;;;;;;3.55;71.24;100988.52;1718194;83;25863;-78
2022/03/16 03:27:56;;;;;;;71.20;40.12;;;;;;;3.58;71.18;100986.70;1718248;83;25575;-77
2022/03/16 03:30:23;;;;;;;72.10;40.83;;;;;;;3.57;71.10;100984.27;1718239;83;27899;-78
2022/03/16 03:32:49;;;;;;;69.47;39.00;;;;;;;3.59;71.10;100988.84;1718214;83;25599;-78
2022/03/16 03:35:16;;;;;;;67.25;39.10;;;;;;;3.56;71.22;100980.79;1718249;83;25420;-78
2022/03/16 03:37:42;;;;;;;68.15;38.35;;;;;;;3.55;71.11;100988.52;1718196;83;25855;-78
2022/03/16 03:40:10;;;;;;;72.03;38.50;;;;;;;3.54;71.16;100994.91;1718283;83;25476;-78
2022/03/16 03:42:36;;;;;;;66.45;38.20;;;;;;;3.53;71.17;100998.12;1691964;83;27356;-78
2022/03/16 03:45:04;;;;;;;61.80;36.08;;;;;;;3.51;71.18;101001.58;1718127;83;25627;-77
2022/03/16 03:47:30;;;;;;;63.80;35.88;;;;;;;3.50;71.09;101005.30;1718243;83;25403;-77
2022/03/16 03:49:56;;;;;;;62.15;35.17;;;;;;;3.51;71.21;101004.25;1718168;83;25922;-76
2022/03/16 03:52:23;;;;;;;68.05;36.15;;;;;;;3.51;71.23;101002.11;1718218;83;25449;-76
2022/03/16 03:54:49;;;;;;;63.13;33.05;;;;;;;3.51;71.40;101003.45;1716543;82;27418;-76
2022/03/16 03:57:16;;;;;;;66.10;34.10;;;;;;;3.51;71.38;101011.48;1715524;83;25532;-77
2022/03/16 03:59:42;;;;;;;68.52;34.33;;;;;;;3.51;71.35;101006.13;1715650;83;25456;-76
2022/03/16 04:02:08;;;;;;;70.52;37.30;;;;;;;3.50;71.36;101007.97;1715610;83;25887;-76
2022/03/16 04:04:35;;;;;;;105.87;94.87;;;;;;;3.52;71.27;101007.22;1715696;83;25623;-76
2022/03/16 04:07:01;;;;;;;60.75;36.60;;;;;;;3.52;71.51;101007.73;1715691;83;27326;-77
2022/03/16 04:09:27;;;;;;;64.65;37.00;;;;;;;3.52;71.56;101006.39;1715846;83;25615;-77
2022/03/16 04:11:54;;;;;;;61.30;36.28;;;;;;;3.52;71.40;101007.73;1718717;83;25172;-75
2022/03/16 04:14:20;;;;;;;62.38;35.98;;;;;;;3.50;71.56;101004.49;1718545;83;25922;-75
2022/03/16 04:16:47;;;;;;;61.75;36.23;;;;;;;3.50;71.54;101008.50;1718517;83;25181;-75
2022/03/16 04:19:13;;;;;;;62.03;35.83;;;;;;;3.50;71.71;101002.62;1718633;83;27321;-75
2022/03/16 04:21:39;;;;;;;61.10;36.55;;;;;;;3.50;71.71;101002.62;1718626;83;25286;-76
2022/03/16 04:24:07;;;;;;;65.10;37.42;;;;;;;3.51;71.63;101002.11;1718697;83;25189;-76
2022/03/16 04:26:34;;;;;;;61.45;36.80;;;;;;;3.50;71.64;101003.16;1718620;83;25893;-75
2022/03/16 04:29:00;;;;;;;63.33;35.43;;;;;;;3.48;71.60;100995.91;1718561;83;25172;-75
2022/03/16 04:31:27;;;;;;;60.10;36.77;;;;;;;3.49;71.65;101009.55;1717706;83;27324;-75
2022/03/16 04:33:53;;;;;;;60.58;34.95;;;;;;;3.48;71.52;101006.61;1718100;83;25331;-76
2022/03/16 04:36:19;;;;;;;60.63;35.98;;;;;;;3.48;71.55;101014.09;1716522;83;25653;-76
2022/03/16 04:38:46;;;;;;;63.45;36.50;;;;;;;3.49;71.68;101010.88;1715568;83;25922;-76
2022/03/16 04:41:12;;;;;;;67.85;37.78;;;;;;;3.47;71.73;101011.13;1715650;83;25458;-76
2022/03/16 04:43:39;;;;;;;66.30;33.95;;;;;;;3.48;71.73;101013.30;1715622;83;27322;-76
2022/03/16 04:46:05;;;;;;;86.65;47.73;;;;;;;3.44;71.55;101003.61;1715514;83;25451;-76
2022/03/16 04:48:32;;;;;;;75.10;39.60;;;;;;;3.46;71.72;101010.06;1715623;83;25672;-76
2022/03/16 04:50:58;;;;;;;67.03;34.98;;;;;;;3.43;71.74;101001.18;1690988;84;25858;-76
2022/03/16 04:53:25;;;;;;;63.85;35.98;;;;;;;3.43;71.60;101009.20;1691142;84;25613;-77
2022/03/16 04:55:51;;;;;;;68.62;37.80;;;;;;;3.42;71.66;101004.89;1668070;84;27210;-77
2022/03/16 04:58:17;;;;;;;68.75;37.88;;;;;;;3.42;71.74;101016.93;1675020;85;25670;-76
2022/03/16 05:00:44;;;;;;;67.17;38.08;;;;;;;3.41;71.72;101024.16;1675124;85;25463;-77
2022/03/16 05:03:10;;;;;;;113.08;98.52;;;;;;;3.42;71.78;101026.30;1675061;85;25978;-77
2022/03/16 05:05:36;;;;;;;111.77;99.83;;;;;;;3.38;71.96;101021.16;1675139;85;25477;-77
2022/03/16 05:08:03;;;;;;;111.12;99.60;;;;;;;3.37;72.20;101029.69;1675075;85;27899;-77
2022/03/16 05:10:30;;;;;;;109.20;97.55;;;;;;;3.38;72.35;101021.16;1675003;85;25651;-77
2022/03/16 05:12:56;;;;;;;108.50;97.37;;;;;;;3.38;72.44;101027.84;1675133;85;25466;-77
2022/03/16 05:15:23;;;;;;;111.15;99.10;;;;;;;3.38;72.45;101027.31;1679937;85;25966;-77
2022/03/16 05:17:49;;;;;;;111.32;99.10;;;;;;;3.38;72.51;101026.50;1686874;85;25558;-77
2022/03/16 05:20:17;;;;;;;109.10;97.47;;;;;;;3.39;72.54;101024.93;1661299;85;26874;-76
2022/03/16 05:22:50;;;;;;;112.25;100.53;;;;;;;3.38;72.53;101024.63;1686758;85;25451;-76
2022/03/16 05:25:23;;;;;;;112.05;100.40;;;;;;;3.39;72.63;101024.93;1686845;85;25564;-75
2022/03/16 05:27:49;;;;;;;114.30;101.75;;;;;;;3.40;72.74;101024.39;1686838;85;25928;-74
2022/03/16 05:30:17;;;;;;;113.05;100.60;;;;;;;3.41;72.85;101032.17;1686873;85;25399;-75
2022/03/16 05:32:43;;;;;;;108.30;96.45;;;;;;;3.42;73.00;101030.30;1686891;85;27424;-76
2022/03/16 05:35:13;;;;;;;113.17;100.65;;;;;;;3.43;73.07;101025.25;1687718;85;25579;-76
2022/03/16 05:37:41;;;;;;;116.03;101.15;;;;;;;3.45;73.17;101023.94;1687226;85;25443;-76
2022/03/16 05:40:10;;;;;;;112.00;99.72;;;;;;;3.48;73.23;101026.13;1686869;85;25583;-76
2022/03/16 05:42:40;;;;;;;74.67;67.12;;;;;;;3.51;73.30;101030.20;1647859;87;25622;-76
2022/03/16 05:45:07;;;;;;;;;;;;;;;3.54;73.38;101027.02;1622379;88;27912;-76
2022/03/16 05:47:33;;;;;;;110.97;99.22;;;;;;;3.58;73.43;101024.16;1636273;87;25436;-76
2022/03/16 05:50:00;;;;;;;113.77;100.60;;;;;;;3.65;73.38;101028.80;1647919;86;25601;-75
2022/03/16 05:52:27;;;;;;;113.55;101.22;;;;;;;3.65;73.38;101028.80;1636322;87;25976;-75
2022/03/16 05:54:57;;;;;;;109.45;88.35;;;;;;;3.65;73.55;101032.81;1663157;84;25508;-75
2022/03/16 05:57:24;;;;;;;82.08;45.03;;;;;;;3.72;73.52;101041.48;1661912;85;27083;-75
2022/03/16 05:59:51;;;;;;;85.97;46.10;;;;;;;3.77;73.46;101042.62;1655879;86;25660;-75
2022/03/16 06:02:19;;;;;;;83.27;46.70;;;;;;;3.77;73.49;101048.78;1685151;85;25474;-75
2022/03/16 06:04:45;;;;;;;95.07;50.80;;;;;;;3.79;73.49;101044.53;1687028;85;25982;-77
2022/03/16 06:07:13;;;;;;;82.17;47.90;;;;;;;3.81;73.63;101050.44;1647955;85;25643;-75
2022/03/16 06:09:41;;;;;;;85.45;48.42;;;;;;;3.83;73.67;101053.67;1701276;84;27334;-76
2022/03/16 06:12:11;;;;;;;85.22;47.98;;;;;;;3.86;73.64;101054.53;1683603;85;25483;-77
2022/03/16 06:14:38;;;;;;;89.83;49.55;;;;;;;3.89;73.68;101053.50;1701112;84;25589;-77
2022/03/16 06:17:04;;;;;;;92.45;49.83;;;;;;;3.93;73.69;101064.53;1701000;84;25996;-77
2022/03/16 06:19:31;;;;;;;89.65;50.23;;;;;;;3.97;73.68;101062.17;1700808;84;25471;-77
2022/03/16 06:21:57;;;;;;;83.10;48.58;;;;;;;4.01;73.66;101062.78;1700833;84;27350;-77
2022/03/16 06:24:24;;;;;;;85.75;48.30;;;;;;;4.05;73.72;101067.94;1700765;84;25660;-76
2022/03/16 06:26:50;;;;;;;94.60;51.23;;;;;;;4.13;73.63;101065.89;1674888;84;25510;-77
2022/03/16 06:29:17;;;;;;;92.30;52.88;;;;;;;4.19;73.56;101066.22;1700849;84;26023;-77
2022/03/16 06:31:43;;;;;;;89.67;50.67;;;;;;;4.23;73.49;101058.00;1698261;84;25414;-77
2022/03/16 06:34:10;;;;;;;89.75;46.37;;;;;;;4.30;73.41;101070.67;1700831;84;27546;-77
2022/03/16 06:36:36;;;;;;;94.20;51.70;;;;;;;4.35;73.31;101069.40;1700834;84;25665;-77
2022/03/16 06:39:03;;;;;;;88.27;49.38;;;;;;;4.44;73.38;101074.63;1700962;84;25411;-77
2022/03/16 06:41:30;;;;;;;91.35;48.80;;;;;;;4.52;73.23;101071.22;1698187;84;25846;-76
2022/03/16 06:43:56;;;;;;;87.60;48.40;;;;;;;4.58;73.10;101075.06;1700973;84;25635;-78
2022/03/16 06:46:23;;;;;;;89.75;47.75;;;;;;;4.66;73.07;101079.16;1701036;84;27343;-77
2022/03/16 06:48:49;;;;;;;84.58;45.52;;;;;;;4.74;73.00;101079.26;1700969;84;25626;-77
2022/03/16 06:51:19;;;;;;;88.42;49.18;;;;;;;4.82;73.21;101078.82;1698516;84;25525;-78
2022/03/16 06:53:45;;;;;;;;;;;;;;;4.92;72.90;101082.13;1703619;84;25870;-76
2022/03/16 06:56:11;;;;;;;88.05;46.48;;;;;;;5.01;72.71;101090.02;1695555;84;25393;-75
2022/03/16 06:58:38;;;;;;;85.15;48.58;;;;;;;5.06;72.42;101084.70;1695260;84;27344;-76
2022/03/16 07:01:04;;;;;;;89.42;50.28;;;;;;;5.18;72.53;101093.41;1695350;84;25436;-70
2022/03/16 07:03:31;;;;;;;89.32;49.93;;;;;;;5.31;72.30;101103.44;1695739;84;25403;-75
2022/03/16 07:05:57;;;;;;;88.90;48.40;;;;;;;5.38;72.18;101095.99;1696037;84;25934;-76
2022/03/16 07:08:24;;;;;;;86.40;46.37;;;;;;;5.47;72.14;101094.48;1695962;84;25263;-76
2022/03/16 07:10:50;;;;;;;111.83;78.02;;;;;;;5.61;72.08;101098.35;1695943;84;27510;-78
2022/03/16 07:13:17;;;;;;;86.20;50.05;;;;;;;5.76;71.84;101103.58;1675884;84;25531;-76
2022/03/16 07:15:45;;;;;;;90.38;52.10;;;;;;;5.88;71.69;101101.52;1696112;84;25214;-75
2022/03/16 07:18:12;;;;;;;85.03;48.73;;;;;;;6.01;71.22;101099.48;1696058;84;26086;-75
2022/03/16 07:20:39;;;;;;;89.87;50.92;;;;;;;6.10;70.77;101101.98;1696249;84;25621;-74
2022/03/16 07:23:12;;;;;;;82.80;49.27;;;;;;;6.23;70.54;101106.06;1696157;84;27531;-75
2022/03/16 07:25:43;;;;;;;87.82;49.65;;;;;;;6.34;70.45;101106.41;1695239;84;25249;-76
2022/03/16 07:28:11;;;;;;;91.40;49.83;;;;;;;6.53;70.50;101108.11;1692707;84;25456;-76
2022/03/16 07:30:38;;;;;;;82.95;47.48;;;;;;;6.68;70.25;101099.31;1702300;82;25926;-71
2022/03/16 07:33:06;;;;;;;83.17;49.38;;;;;;;6.86;70.33;101102.89;1720489;83;25350;-73
2022/03/16 07:35:35;;;;;;;81.02;47.83;;;;;;;7.07;69.83;101102.39;1720398;83;28014;-72
2022/03/16 07:38:02;;;;;;;88.05;49.93;;;;;;;7.25;69.36;101106.48;1702572;83;26444;-73
2022/03/16 07:40:31;;;;;;;81.35;46.42;;;;;;;7.42;69.02;101112.97;1720275;83;25679;-73
2022/03/16 07:42:57;;;;;;;82.78;46.45;;;;;;;7.61;68.98;101105.17;1720293;83;26609;-72
2022/03/16 07:45:24;;;;;;;79.82;46.73;;;;;;;7.85;68.87;101113.51;1720241;83;26349;-72
2022/03/16 07:47:53;;;;;;;79.80;43.75;;;;;;;8.06;68.35;101112.14;1720308;83;27332;-74
2022/03/16 07:50:20;;;;;;;78.55;45.43;;;;;;;8.26;67.69;101115.86;1720281;83;25711;-74
2022/03/16 07:52:47;;;;;;;74.50;44.27;;;;;;;8.45;67.41;101110.75;1720249;83;25771;-73
2022/03/16 07:55:14;;;;;;;77.03;45.58;;;;;;;8.67;66.69;101121.19;1720131;83;25883;-73
2022/03/16 07:57:41;;;;;;;73.75;42.58;;;;;;;8.87;66.40;101127.84;1699270;83;25727;-73
2022/03/16 08:00:11;;;;;;;78.37;44.93;;;;;;;9.05;65.79;101118.85;1720128;83;27313;-73
2022/03/16 08:02:39;;;;;;;71.30;41.73;;;;;;;9.29;66.04;101125.17;1720185;83;25766;-73
2022/03/16 08:05:07;;;;;;;74.87;46.80;;;;;;;9.57;65.43;101130.12;1720117;83;25806;-75
2022/03/16 08:07:33;;;;;;;76.77;46.60;;;;;;;9.86;65.11;101130.98;1679337;83;26462;-74
2022/03/16 08:10:00;;;;;;;71.20;44.85;;;;;;;10.14;64.38;101136.67;1720172;83;25754;-74
2022/03/16 08:12:27;;;;;;;76.97;46.55;;;;;;;10.38;63.20;101138.63;1701957;83;27224;-74
2022/03/16 08:14:54;;;;;;;78.65;47.15;;;;;;;10.58;62.51;101134.34;1720674;83;25728;-74
2022/03/16 08:17:20;;;;;;;73.92;45.55;;;;;;;10.76;61.92;101139.56;1721348;83;25712;-75
2022/03/16 08:19:47;;;;;;;69.60;44.23;;;;;;;10.89;60.71;101135.88;1721869;83;26506;-75
2022/03/16 08:22:13;;;;;;;67.47;43.15;;;;;;;10.96;60.04;101137.67;1706420;81;25657;-75
2022/03/16 08:24:40;;;;;;;66.55;44.80;;;;;;;11.09;59.75;101135.61;1728676;81;27525;-75
2022/03/16 08:27:07;;;;;;;64.87;43.38;;;;;;;11.31;59.42;101136.95;1716588;83;25802;-75
2022/03/16 08:29:33;;;;;;;72.42;42.62;;;;;;;11.49;59.24;101140.20;1716484;83;25710;-76
2022/03/16 08:32:49;;;;;;;65.25;43.28;;;;;;;11.67;58.40;101144.53;1718530;81;26115;-76
2022/03/16 08:35:15;;;;;;;70.45;42.90;;;;;;;11.92;58.51;101148.20;1693116;82;25787;-75
2022/03/16 08:37:48;;;;;;;64.55;42.53;;;;;;;12.23;57.67;101145.52;1690016;84;25803;-75
2022/03/16 08:40:16;;;;;;;70.17;43.35;;;;;;;12.46;56.70;101147.78;1690115;84;25770;-75
2022/03/16 08:42:44;;;;;;;68.87;42.60;;;;;;;12.64;55.86;101145.53;1690112;84;25712;-75
2022/03/16 08:45:10;;;;;;;68.47;41.68;;;;;;;12.78;55.48;101144.16;1690178;84;25919;-76
2022/03/16 08:47:37;;;;;;;66.12;41.75;;;;;;;12.93;54.76;101144.41;1690089;84;25753;-75
2022/03/16 08:50:05;;;;;;;72.78;52.88;;;;;;;13.05;54.57;101146.04;1690323;84;27351;-75
2022/03/16 08:52:32;;;;;;;63.87;41.63;;;;;;;13.26;54.13;101146.95;1690839;84;25787;-75
2022/03/16 08:54:59;;;;;;;62.90;40.60;;;;;;;13.44;53.74;101147.38;1690486;84;25723;-74
2022/03/16 08:57:26;;;;;;;69.40;44.95;;;;;;;13.64;53.42;101146.67;1695562;84;26588;-74
2022/03/16 08:59:53;;;;;;;64.92;44.23;;;;;;;13.80;52.76;101161.48;1695514;84;25640;-74
2022/03/16 09:02:19;;;;;;;72.75;46.40;;;;;;;13.88;51.67;101161.88;1695595;84;27897;-74
2022/03/16 09:04:45;;;;;;;80.72;45.90;;;;;;;13.85;51.09;101168.72;1695446;84;25767;-75
2022/03/16 09:07:16;;;;;;;81.30;44.93;;;;;;;13.89;50.83;101169.69;1695526;84;25761;-75
2022/03/16 09:09:42;;;;;;;66.75;42.53;;;;;;;13.89;50.40;101177.05;1695528;84;25923;-75
2022/03/16 09:12:10;;;;;;;62.50;43.70;;;;;;;13.87;50.32;101171.92;1695570;84;25732;-75
2022/03/16 09:14:38;;;;;;;61.95;40.45;;;;;;;13.88;50.02;101174.91;1695588;84;27481;-74
2022/03/16 09:17:10;;;;;;;61.45;42.05;;;;;;;13.91;49.72;101176.19;1695454;84;25740;-75
2022/03/16 09:19:36;;;;;;;62.35;42.48;;;;;;;13.93;49.63;101169.91;1695479;84;25726;-75
2022/03/16 09:22:04;;;;;;;63.08;42.85;;;;;;;13.94;49.53;101176.36;1695609;84;25991;-76
2022/03/16 09:24:31;;;;;;;63.48;42.93;;;;;;;13.96;49.43;101176.05;1694605;84;25741;-76
2022/03/16 09:26:58;;;;;;;63.13;42.27;;;;;;;13.92;49.01;101181.31;1694524;84;27287;-76
2022/03/16 09:29:25;;;;;;;64.37;42.50;;;;;;;13.94;48.67;101179.65;1694604;84;25823;-76
2022/03/16 09:31:51;;;;;;;64.70;41.77;;;;;;;13.93;48.83;101184.86;1708083;83;25812;-75
2022/03/16 09:34:18;;;;;;;60.90;40.35;;;;;;;13.93;48.61;101186.22;1719216;83;26713;-76
2022/03/16 09:36:45;;;;;;;64.60;41.60;;;;;;;13.94;48.46;101187.24;1719726;83;25616;-75
2022/03/16 09:39:12;;;;;;;62.98;40.40;;;;;;;13.92;48.39;101184.03;1720686;83;27365;-75
2022/03/16 09:41:38;;;;;;;58.23;40.85;;;;;;;13.96;48.57;101187.76;1721058;83;25566;-74
2022/03/16 09:44:06;;;;;;;58.20;40.00;;;;;;;14.07;48.53;101195.09;1721193;83;25507;-74
2022/03/16 09:46:36;;;;;;;59.08;40.52;;;;;;;14.16;48.19;101197.30;1721182;83;26039;-74
2022/03/16 09:49:04;;;;;;;50.33;37.48;;;;;;;14.19;48.05;101195.89;1721245;83;25591;-75
2022/03/16 09:51:35;;;;;;;59.97;39.87;;;;;;;14.28;48.13;101204.10;1721436;83;27375;-74
2022/03/16 09:54:04;;;;;;;55.08;40.67;;;;;;;14.37;47.81;101209.05;1721018;83;25559;-74
2022/03/16 09:56:32;;;;;;;59.27;38.48;;;;;;;14.43;47.38;101204.27;1716922;83;25531;-74
2022/03/16 09:58:58;;;;;;;55.30;40.00;;;;;;;14.53;47.48;101208.08;1712498;83;26091;-75
2022/03/16 10:01:25;;;;;;;51.65;36.40;;;;;;;14.60;46.84;101209.02;1712638;83;25597;-75
2022/03/16 10:03:53;;;;;;;52.35;34.90;;;;;;;14.70;47.33;101210.11;1712938;83;27427;-75
2022/03/16 10:06:24;;;;;;;54.98;37.30;;;;;;;14.88;46.79;101215.87;1712955;83;25588;-75
2022/03/16 10:14:20;;;;;;;50.40;35.28;;;;;;;15.54;46.32;101224.55;1712492;83;25194;-75
2022/03/16 10:19:53;;;;;;;52.23;35.75;;;;;;;16.16;45.79;101226.17;1712327;83;25589;-71
2022/03/16 10:22:27;;;;;;;49.42;34.75;;;;;;;16.55;45.45;101226.21;1714620;82;25874;-72
2022/03/16 10:25:06;;;;;;;52.70;36.20;;;;;;;16.67;44.73;101230.98;1701918;84;25946;-70
2022/03/16 10:27:39;;;;;;;48.25;35.20;;;;;;;16.90;44.59;101236.47;1732467;82;26228;-70
2022/03/16 10:30:08;;;;;;;51.08;35.92;;;;;;;17.17;44.14;101235.77;1732625;82;28028;-73
2022/03/16 10:32:36;;;;;;;50.63;36.05;;;;;;;17.41;43.38;101239.23;1732650;82;25628;-74
2022/03/16 10:35:05;;;;;;;43.65;32.08;;;;;;;17.64;43.40;101234.80;1732769;82;25690;-74
2022/03/16 10:37:35;;;;;;;42.83;32.23;;;;;;;17.86;42.76;101244.08;1732669;82;25905;-74
2022/03/16 10:40:17;;;;;;;47.15;33.55;;;;;;;18.14;42.71;101244.86;1732914;82;25617;-75
2022/03/16 10:48:25;;;;;;;42.40;32.65;;;;;;;18.56;41.01;101246.67;1732816;82;25474;-74
2022/03/16 10:50:57;;;;;;;38.63;28.38;;;;;;;18.91;41.00;101249.02;1732936;82;26283;-74
2022/03/16 10:53:29;;;;;;;37.98;26.48;;;;;;;19.38;40.84;101251.28;1732695;82;25608;-74
2022/03/16 10:55:55;;;;;;;36.77;26.27;;;;;;;19.80;40.31;101252.33;1731200;81;27324;-73
2022/03/16 10:58:24;;;;;;;36.55;25.32;;;;;;;20.18;39.04;101250.25;1680677;85;25798;-73
2022/03/16 11:00:52;;;;;;;35.75;26.75;;;;;;;20.40;38.68;101245.55;1710917;83;25676;-73
2022/03/16 11:03:25;;;;;;;37.93;27.67;;;;;;;20.61;38.28;101257.65;1738982;80;26021;-73
2022/03/16 11:05:50;;;;;;;35.63;25.20;;;;;;;21.00;38.22;101254.30;1740445;81;25737;-74
2022/03/16 11:08:16;;;;;;;30.82;23.80;;;;;;;21.40;36.61;101260.11;1740928;82;27294;-74
2022/03/16 11:10:45;;;;;;;31.50;22.70;;;;;;;21.49;35.76;101262.69;1740948;82;25712;-73
2022/03/16 11:13:32;;;;;;;29.60;23.87;;;;;;;21.80;35.64;101263.16;1741019;82;25635;-74
2022/03/16 11:16:00;;;;;;;29.12;23.22;;;;;;;21.77;34.60;101256.41;1741192;82;25943;-73
2022/03/16 11:18:27;;;;;;;30.57;24.15;;;;;;;21.89;34.52;101256.05;1741191;82;25702;-75
2022/03/16 11:21:05;;;;;;;28.85;23.32;;;;;;;22.11;34.13;101261.41;1740912;82;27331;-75
2022/03/16 11:26:53;;;;;;;28.95;23.38;;;;;;;22.75;33.00;101250.16;1741069;82;25750;-75
2022/03/16 11:29:54;;;;;;;27.17;23.32;;;;;;;22.73;32.77;101256.64;1740824;82;26431;-74
2022/03/16 11:32:21;;;;;;;30.10;23.27;;;;;;;22.90;32.94;101260.03;1741284;82;25619;-74
2022/03/16 11:34:58;;;;;;;28.15;23.20;;;;;;;22.83;32.23;101260.75;1741022;82;27379;-74